createdAt,value
2022-08-30T00:00:42.395Z,58.66
2022-08-30T00:01:42.391Z,58.44
2022-08-30T00:02:42.582Z,56.72
2022-08-30T00:03:42.555Z,60.41
2022-08-30T00:04:42.367Z,58.61
2022-08-30T00:05:42.392Z,59.07
2022-08-30T00:06:42.346Z,49.80
2022-08-30T00:07:42.394Z,56.90
2022-08-30T00:08:42.338Z,61.41
2022-08-30T00:09:42.346Z,49.98
2022-08-30T00:10:42.293Z,60.56
2022-08-30T00:11:42.299Z,64.27
2022-08-30T00:12:42.298Z,56.48
2022-08-30T00:13:42.283Z,61.16
2022-08-30T00:14:42.307Z,52.24
2022-08-30T00:15:42.331Z,63.95
2022-08-30T00:16:42.227Z,58.44
2022-08-30T00:17:42.203Z,57.20
2022-08-30T00:18:42.252Z,59.64
2022-08-30T00:19:42.248Z,57.14
2022-08-30T00:20:42.222Z,59.88
2022-08-30T00:21:42.191Z,64.01
2022-08-30T00:22:42.179Z,50.99
2022-08-30T00:23:42.188Z,61.55
2022-08-30T00:24:42.167Z,66.83
2022-08-30T00:25:42.123Z,51.58
2022-08-30T00:26:42.135Z,55.65
2022-08-30T00:27:42.158Z,60.27
2022-08-30T00:28:42.091Z,61.94
2022-08-30T00:29:42.129Z,58.07
2022-08-30T00:30:42.148Z,61.66
2022-08-30T00:31:42.107Z,64.77
2022-08-30T00:32:42.143Z,62.74
2022-08-30T00:33:42.067Z,68.61
2022-08-30T00:34:42.072Z,62.50
2022-08-30T00:35:42.079Z,64.50
2022-08-30T00:36:42.013Z,58.51
2022-08-30T00:37:42.029Z,62.35
2022-08-30T00:38:42.075Z,63.30
2022-08-30T00:39:42.008Z,63.98
2022-08-30T00:40:42.078Z,63.58
2022-08-30T00:41:41.997Z,60.99
2022-08-30T00:42:41.944Z,52.47
2022-08-30T00:43:41.964Z,64.37
2022-08-30T00:44:41.920Z,65.53
2022-08-30T00:45:43.061Z,58.06
2022-08-30T00:46:41.988Z,53.70
2022-08-30T00:47:41.884Z,53.79
2022-08-30T00:48:41.992Z,57.86
2022-08-30T00:49:41.863Z,61.58
2022-08-30T00:50:41.955Z,57.04
2022-08-30T00:51:41.867Z,57.54
2022-08-30T00:52:41.857Z,53.76
2022-08-30T00:53:41.833Z,61.46
2022-08-30T00:54:41.836Z,58.29
2022-08-30T00:55:42.080Z,63.53
2022-08-30T00:56:41.842Z,66.68
2022-08-30T00:57:41.984Z,60.93
2022-08-30T00:58:41.806Z,57.85
2022-08-30T00:59:41.789Z,56.77
2022-08-30T01:00:41.764Z,61.69
2022-08-30T01:01:41.796Z,69.05
2022-08-30T01:02:41.791Z,66.24
2022-08-30T01:03:41.709Z,62.39
2022-08-30T01:04:41.725Z,57.21
2022-08-30T01:05:41.709Z,64.43
2022-08-30T01:06:41.726Z,68.19
2022-08-30T01:07:41.691Z,59.11
2022-08-30T01:08:41.682Z,57.17
2022-08-30T01:09:41.671Z,64.18
2022-08-30T01:10:41.662Z,59.16
2022-08-30T01:11:41.642Z,67.39
2022-08-30T01:12:41.636Z,58.07
2022-08-30T01:13:41.623Z,65.10
2022-08-30T01:14:41.610Z,57.70
2022-08-30T01:15:41.672Z,64.50
2022-08-30T01:16:41.604Z,57.79
2022-08-30T01:17:41.557Z,64.01
2022-08-30T01:18:41.558Z,63.59
2022-08-30T01:19:41.559Z,59.07
2022-08-30T01:20:41.556Z,63.75
2022-08-30T01:21:41.566Z,63.50
2022-08-30T01:22:41.522Z,59.12
2022-08-30T01:23:41.494Z,57.11
2022-08-30T01:24:41.487Z,60.17
2022-08-30T01:25:41.472Z,57.76
2022-08-30T01:26:41.495Z,63.38
2022-08-30T01:27:41.484Z,68.67
2022-08-30T01:28:41.483Z,63.77
2022-08-30T01:29:41.447Z,64.21
2022-08-30T01:30:41.443Z,52.63
2022-08-30T01:31:41.423Z,59.70
2022-08-30T01:32:41.423Z,63.85
2022-08-30T01:33:41.392Z,62.09
2022-08-30T01:34:41.664Z,61.47
2022-08-30T01:35:41.347Z,59.60
2022-08-30T01:36:44.942Z,66.60
2022-08-30T01:37:41.343Z,65.29
2022-08-30T01:38:41.349Z,54.95
2022-08-30T01:39:41.332Z,64.95
2022-08-30T01:40:41.340Z,64.31
2022-08-30T01:41:41.300Z,55.65
2022-08-30T01:42:41.316Z,65.71
2022-08-30T01:43:41.287Z,64.15
2022-08-30T01:44:41.296Z,60.75
2022-08-30T01:45:42.122Z,69.97
2022-08-30T01:46:41.256Z,55.85
2022-08-30T01:47:41.252Z,64.61
2022-08-30T01:48:41.223Z,61.99
2022-08-30T01:49:41.217Z,63.10
2022-08-30T01:50:41.173Z,57.31
2022-08-30T01:51:41.194Z,65.28
2022-08-30T01:52:41.240Z,60.92
2022-08-30T01:53:41.168Z,62.48
2022-08-30T01:54:41.192Z,62.06
2022-08-30T01:55:41.139Z,60.87
2022-08-30T01:56:42.055Z,58.91
2022-08-30T01:57:41.112Z,60.40
2022-08-30T01:58:41.105Z,63.17
2022-08-30T01:59:41.082Z,65.55
2022-08-30T02:00:41.083Z,58.18
2022-08-30T02:01:41.146Z,58.02
2022-08-30T02:02:41.076Z,59.72
2022-08-30T02:03:41.166Z,68.61
2022-08-30T02:04:41.033Z,65.03
2022-08-30T02:05:41.033Z,59.52
2022-08-30T02:06:41.000Z,63.15
2022-08-30T02:07:41.009Z,63.10
2022-08-30T02:08:40.989Z,61.03
2022-08-30T02:09:40.986Z,64.48
2022-08-30T02:10:40.983Z,63.76
2022-08-30T02:11:40.946Z,59.41
2022-08-30T02:12:40.934Z,67.30
2022-08-30T02:13:40.931Z,67.49
2022-08-30T02:14:40.930Z,56.44
2022-08-30T02:15:41.544Z,68.43
2022-08-30T02:16:40.928Z,70.16
2022-08-30T02:17:40.882Z,62.31
2022-08-30T02:18:40.853Z,67.14
2022-08-30T02:20:14.619Z,58.84
2022-08-30T02:20:40.818Z,61.98
2022-08-30T02:21:40.837Z,57.93
2022-08-30T02:22:40.867Z,65.51
2022-08-30T02:23:41.822Z,61.06
2022-08-30T02:24:40.841Z,57.93
2022-08-30T02:25:40.822Z,59.99
2022-08-30T02:26:40.769Z,65.56
2022-08-30T02:27:40.751Z,59.45
2022-08-30T02:28:42.628Z,60.57
2022-08-30T02:29:41.745Z,59.48
2022-08-30T02:30:40.780Z,60.89
2022-08-30T02:31:40.714Z,65.06
2022-08-30T02:32:40.733Z,62.43
2022-08-30T02:33:40.710Z,64.12
2022-08-30T02:34:40.741Z,61.55
2022-08-30T02:35:40.713Z,67.39
2022-08-30T02:36:40.724Z,67.66
2022-08-30T02:37:40.650Z,67.31
2022-08-30T02:38:40.650Z,62.01
2022-08-30T02:39:40.631Z,65.63
2022-08-30T02:40:40.656Z,66.84
2022-08-30T02:41:40.607Z,63.48
2022-08-30T02:42:40.602Z,65.88
2022-08-30T02:43:40.627Z,62.45
2022-08-30T02:44:40.703Z,65.66
2022-08-30T02:45:41.666Z,65.37
2022-08-30T02:46:40.626Z,62.25
2022-08-30T02:47:44.888Z,68.15
2022-08-30T02:48:42.575Z,67.53
2022-08-30T02:49:40.556Z,65.92
2022-08-30T02:50:40.527Z,66.19
2022-08-30T02:51:40.499Z,70.67
2022-08-30T02:52:40.495Z,64.53
2022-08-30T02:53:40.487Z,67.44
2022-08-30T02:54:40.472Z,66.00
2022-08-30T02:55:40.450Z,64.97
2022-08-30T02:56:40.459Z,64.17
2022-08-30T02:57:41.187Z,65.89
2022-08-30T02:58:40.407Z,66.75
2022-08-30T02:59:40.412Z,64.20
2022-08-30T03:00:40.451Z,65.47
2022-08-30T03:01:40.407Z,69.95
2022-08-30T03:02:40.395Z,66.37
2022-08-30T03:03:40.430Z,68.71
2022-08-30T03:04:40.374Z,68.92
2022-08-30T03:05:40.388Z,66.07
2022-08-30T03:06:40.348Z,67.08
2022-08-30T03:07:40.318Z,67.24
2022-08-30T03:08:40.327Z,62.94
2022-08-30T03:09:40.313Z,69.50
2022-08-30T03:10:40.312Z,65.33
2022-08-30T03:11:40.291Z,69.51
2022-08-30T03:12:40.290Z,68.94
2022-08-30T03:13:40.252Z,66.00
2022-08-30T03:14:40.269Z,66.51
2022-08-30T03:15:40.212Z,69.76
2022-08-30T03:16:40.255Z,69.14
2022-08-30T03:17:40.225Z,68.38
2022-08-30T03:18:40.241Z,69.90
2022-08-30T03:19:40.169Z,70.76
2022-08-30T03:20:40.227Z,70.92
2022-08-30T03:21:40.145Z,72.03
2022-08-30T03:22:40.159Z,68.98
2022-08-30T03:23:40.122Z,70.37
2022-08-30T03:24:40.185Z,69.34
2022-08-30T03:25:40.113Z,70.49
2022-08-30T03:26:44.247Z,70.60
2022-08-30T03:27:42.257Z,71.86
2022-08-30T03:28:40.117Z,71.80
2022-08-30T03:29:40.078Z,68.27
2022-08-30T03:30:40.044Z,69.68
2022-08-30T03:31:45.404Z,72.61
2022-08-30T03:32:41.000Z,70.69
2022-08-30T03:33:40.105Z,71.17
2022-08-30T03:34:40.003Z,71.20
2022-08-30T03:35:39.991Z,72.51
2022-08-30T03:36:40.023Z,73.16
2022-08-30T03:37:40.176Z,69.68
2022-08-30T03:38:39.935Z,73.45
2022-08-30T03:39:39.940Z,73.01
2022-08-30T03:40:40.001Z,71.93
2022-08-30T03:41:39.949Z,71.03
2022-08-30T03:42:39.944Z,70.58
2022-08-30T03:43:39.871Z,71.55
2022-08-30T03:44:39.887Z,71.45
2022-08-30T03:45:40.722Z,70.74
2022-08-30T03:46:39.991Z,68.97
2022-08-30T03:47:41.050Z,74.09
2022-08-30T03:48:39.842Z,71.73
2022-08-30T03:49:39.816Z,71.29
2022-08-30T03:50:39.814Z,72.04
2022-08-30T03:51:39.807Z,73.45
2022-08-30T03:52:39.756Z,72.47
2022-08-30T03:53:39.861Z,72.05
2022-08-30T03:54:39.757Z,71.88
2022-08-30T03:55:39.769Z,71.40
2022-08-30T03:56:39.764Z,70.54
2022-08-30T03:57:39.754Z,70.86
2022-08-30T03:58:39.698Z,71.62
2022-08-30T03:59:39.688Z,72.78
2022-08-30T04:00:39.713Z,71.53
2022-08-30T04:01:39.681Z,73.49
2022-08-30T04:02:39.779Z,71.40
2022-08-30T04:03:39.669Z,72.19
2022-08-30T04:04:39.652Z,72.64
2022-08-30T04:05:39.609Z,72.97
2022-08-30T04:06:39.642Z,71.51
2022-08-30T04:07:39.637Z,72.06
2022-08-30T04:08:39.588Z,73.79
2022-08-30T04:09:39.589Z,71.26
2022-08-30T04:10:39.700Z,72.64
2022-08-30T04:11:39.550Z,71.20
2022-08-30T04:12:39.573Z,73.21
2022-08-30T04:13:39.509Z,72.00
2022-08-30T04:14:39.506Z,71.12
2022-08-30T04:15:39.515Z,72.46
2022-08-30T04:16:39.560Z,72.82
2022-08-30T04:17:39.487Z,72.76
2022-08-30T04:18:39.487Z,73.44
2022-08-30T04:19:39.474Z,75.08
2022-08-30T04:20:39.447Z,73.55
2022-08-30T04:21:43.284Z,72.59
2022-08-30T04:22:39.458Z,73.15
2022-08-30T04:23:39.424Z,73.55
2022-08-30T04:24:39.406Z,73.06
2022-08-30T04:25:39.395Z,76.33
2022-08-30T04:26:39.370Z,75.63
2022-08-30T04:27:39.394Z,74.36
2022-08-30T04:28:39.426Z,73.89
2022-08-30T04:29:39.360Z,75.28
2022-08-30T04:30:39.338Z,74.25
2022-08-30T04:31:39.444Z,76.02
2022-08-30T04:32:39.295Z,75.09
2022-08-30T04:33:39.314Z,74.61
2022-08-30T04:34:39.353Z,75.36
2022-08-30T04:35:39.326Z,76.17
2022-08-30T04:36:39.276Z,75.96
2022-08-30T04:37:39.283Z,75.34
2022-08-30T04:38:39.283Z,75.94
2022-08-30T04:39:40.298Z,76.00
2022-08-30T04:40:39.280Z,75.12
2022-08-30T04:41:39.237Z,76.65
2022-08-30T04:42:39.272Z,75.48
2022-08-30T04:43:39.319Z,76.30
2022-08-30T04:44:39.179Z,74.78
2022-08-30T04:45:39.246Z,74.91
2022-08-30T04:46:44.392Z,74.35
2022-08-30T04:47:39.179Z,77.20
2022-08-30T04:48:39.134Z,76.31
2022-08-30T04:49:39.139Z,76.55
2022-08-30T04:50:39.143Z,75.39
2022-08-30T04:51:39.108Z,74.27
2022-08-30T04:52:39.116Z,75.80
2022-08-30T04:53:39.053Z,76.57
2022-08-30T04:54:39.060Z,76.66
2022-08-30T04:55:39.068Z,77.01
2022-08-30T04:56:40.093Z,74.90
2022-08-30T04:57:39.052Z,73.55
2022-08-30T04:58:39.033Z,74.65
2022-08-30T04:59:39.022Z,73.58
2022-08-30T05:00:39.040Z,72.27
2022-08-30T05:01:45.380Z,74.48
2022-08-30T05:02:40.101Z,74.93
2022-08-30T05:03:38.970Z,73.94
2022-08-30T05:04:38.954Z,73.94
2022-08-30T05:05:38.927Z,75.14
2022-08-30T05:06:38.948Z,72.92
2022-08-30T05:07:38.970Z,73.81
2022-08-30T05:08:38.914Z,74.18
2022-08-30T05:09:39.901Z,73.88
2022-08-30T05:10:38.886Z,73.90
2022-08-30T05:11:38.851Z,74.51
2022-08-30T05:12:38.894Z,72.27
2022-08-30T05:13:38.871Z,72.50
2022-08-30T05:14:38.839Z,73.58
2022-08-30T05:15:38.842Z,75.10
2022-08-30T05:16:38.925Z,73.58
2022-08-30T05:17:38.912Z,73.28
2022-08-30T05:18:38.758Z,73.93
2022-08-30T05:19:39.783Z,74.87
2022-08-30T05:20:38.782Z,74.24
2022-08-30T05:21:38.770Z,72.77
2022-08-30T05:22:38.755Z,73.93
2022-08-30T05:23:38.758Z,74.21
2022-08-30T05:24:38.736Z,74.25
2022-08-30T05:25:38.684Z,75.14
2022-08-30T05:26:38.736Z,72.84
2022-08-30T05:27:38.679Z,74.00
2022-08-30T05:28:38.654Z,74.23
2022-08-30T05:29:38.719Z,74.49
2022-08-30T05:30:38.627Z,74.59
2022-08-30T05:31:38.667Z,73.64
2022-08-30T05:32:38.617Z,73.06
2022-08-30T05:33:38.884Z,74.68
2022-08-30T05:34:38.599Z,71.83
2022-08-30T05:35:38.567Z,73.99
2022-08-30T05:36:38.599Z,75.67
2022-08-30T05:37:38.538Z,72.85
2022-08-30T05:38:38.571Z,73.40
2022-08-30T05:39:51.226Z,72.02
2022-08-30T05:40:39.550Z,74.71
2022-08-30T05:41:38.537Z,72.36
2022-08-30T05:42:38.493Z,74.66
2022-08-30T05:43:38.547Z,73.86
2022-08-30T05:44:38.504Z,74.00
2022-08-30T05:45:39.467Z,74.35
2022-08-30T05:46:39.065Z,72.27
2022-08-30T05:47:38.424Z,73.73
2022-08-30T05:48:38.486Z,73.50
2022-08-30T05:49:38.420Z,74.29
2022-08-30T05:50:40.067Z,73.36
2022-08-30T05:51:43.007Z,72.67
2022-08-30T05:52:38.376Z,73.61
2022-08-30T05:53:38.386Z,72.73
2022-08-30T05:54:38.420Z,74.26
2022-08-30T05:55:38.355Z,74.53
2022-08-30T05:56:39.166Z,70.42
2022-08-30T05:57:38.316Z,70.61
2022-08-30T05:58:38.303Z,74.36
2022-08-30T05:59:38.324Z,73.26
2022-08-30T06:00:38.284Z,75.11
2022-08-30T06:01:38.307Z,72.08
2022-08-30T06:02:38.329Z,73.91
2022-08-30T06:03:38.264Z,72.78
2022-08-30T06:04:38.269Z,71.33
2022-08-30T06:05:38.329Z,73.78
2022-08-30T06:06:38.209Z,72.60
2022-08-30T06:07:38.179Z,71.04
2022-08-30T06:08:38.292Z,72.78
2022-08-30T06:09:38.225Z,71.18
2022-08-30T06:10:38.157Z,72.82
2022-08-30T06:11:38.161Z,73.29
2022-08-30T06:12:38.187Z,72.63
2022-08-30T06:13:38.127Z,74.49
2022-08-30T06:14:38.157Z,72.31
2022-08-30T06:15:38.105Z,71.69
2022-08-30T06:16:38.125Z,74.21
2022-08-30T06:17:38.058Z,70.17
2022-08-30T06:18:38.049Z,69.57
2022-08-30T06:19:38.042Z,73.72
2022-08-30T06:20:38.053Z,71.28
2022-08-30T06:21:38.016Z,73.69
2022-08-30T06:22:38.030Z,72.15
2022-08-30T06:23:38.018Z,74.80
2022-08-30T06:24:56.322Z,70.85
2022-08-30T06:25:41.383Z,72.65
2022-08-30T06:26:37.990Z,69.48
2022-08-30T06:27:37.989Z,71.30
2022-08-30T06:28:37.913Z,74.80
2022-08-30T06:29:37.938Z,72.78
2022-08-30T06:30:37.930Z,70.70
2022-08-30T06:31:38.015Z,70.86
2022-08-30T06:32:37.887Z,73.02
2022-08-30T06:33:37.971Z,72.34
2022-08-30T06:34:37.922Z,72.05
2022-08-30T06:35:46.681Z,72.87
2022-08-30T06:36:38.906Z,72.18
2022-08-30T06:37:37.838Z,71.76
2022-08-30T06:38:37.835Z,72.35
2022-08-30T06:39:37.811Z,72.83
2022-08-30T06:40:38.175Z,73.69
2022-08-30T06:41:37.851Z,73.06
2022-08-30T06:42:37.784Z,71.20
2022-08-30T06:43:37.815Z,73.98
2022-08-30T06:44:37.782Z,73.18
2022-08-30T06:45:37.790Z,72.73
2022-08-30T06:46:37.821Z,71.83
2022-08-30T06:47:37.761Z,73.78
2022-08-30T06:48:37.740Z,72.90
2022-08-30T06:49:37.825Z,69.96
2022-08-30T06:50:37.677Z,69.80
2022-08-30T06:51:37.708Z,72.20
2022-08-30T06:52:37.719Z,71.38
2022-08-30T06:53:37.679Z,70.58
2022-08-30T06:54:37.647Z,72.02
2022-08-30T06:55:37.651Z,67.99
2022-08-30T06:56:37.659Z,66.49
2022-08-30T06:57:37.624Z,71.10
2022-08-30T06:58:37.614Z,72.74
2022-08-30T06:59:37.616Z,70.01
2022-08-30T07:00:37.595Z,67.38
2022-08-30T07:01:37.670Z,67.26
2022-08-30T07:02:37.647Z,71.63
2022-08-30T07:03:37.548Z,70.29
2022-08-30T07:04:37.538Z,70.69
2022-08-30T07:05:37.540Z,70.22
2022-08-30T07:06:37.588Z,69.98
2022-08-30T07:07:37.517Z,71.68
2022-08-30T07:08:37.516Z,70.23
2022-08-30T07:09:37.503Z,72.56
2022-08-30T07:10:37.509Z,72.28
2022-08-30T07:11:37.481Z,69.94
2022-08-30T07:12:38.216Z,70.21
2022-08-30T07:13:37.465Z,70.50
2022-08-30T07:14:37.445Z,72.34
2022-08-30T07:15:38.476Z,70.71
2022-08-30T07:16:37.413Z,68.66
2022-08-30T07:17:37.405Z,72.40
2022-08-30T07:18:37.421Z,69.03
2022-08-30T07:19:37.409Z,72.15
2022-08-30T07:20:40.514Z,71.04
2022-08-30T07:21:37.351Z,70.81
2022-08-30T07:22:37.353Z,68.88
2022-08-30T07:23:37.407Z,73.16
2022-08-30T07:24:37.373Z,72.11
2022-08-30T07:25:37.326Z,71.34
2022-08-30T07:26:37.322Z,70.30
2022-08-30T07:27:37.558Z,71.03
2022-08-30T07:28:37.321Z,70.64
2022-08-30T07:29:38.069Z,70.36
2022-08-30T07:30:37.234Z,69.40
2022-08-30T07:31:37.340Z,71.51
2022-08-30T07:32:37.216Z,70.30
2022-08-30T07:33:38.217Z,70.28
2022-08-30T07:34:37.241Z,70.84
2022-08-30T07:35:37.231Z,69.35
2022-08-30T07:36:37.214Z,72.24
2022-08-30T07:37:37.275Z,69.23
2022-08-30T07:38:37.161Z,70.95
2022-08-30T07:39:44.558Z,72.31
2022-08-30T07:40:38.273Z,69.23
2022-08-30T07:41:37.145Z,69.76
2022-08-30T07:42:37.150Z,68.21
2022-08-30T07:43:37.120Z,71.44
2022-08-30T07:44:37.109Z,69.09
2022-08-30T07:45:37.117Z,73.55
2022-08-30T07:46:37.113Z,69.84
2022-08-30T07:47:37.073Z,68.46
2022-08-30T07:48:37.055Z,68.79
2022-08-30T07:49:37.054Z,70.20
2022-08-30T07:50:37.103Z,70.82
2022-08-30T07:51:37.050Z,69.42
2022-08-30T07:53:37.049Z,65.45
2022-08-30T07:54:36.992Z,69.93
2022-08-30T07:55:37.008Z,67.96
2022-08-30T07:56:36.989Z,67.30
2022-08-30T07:57:36.965Z,71.79
2022-08-30T07:58:36.971Z,70.90
2022-08-30T07:59:36.994Z,67.97
2022-08-30T08:00:36.961Z,72.70
2022-08-30T08:01:36.954Z,70.80
2022-08-30T08:02:36.962Z,70.28
2022-08-30T08:03:36.967Z,67.33
2022-08-30T08:04:36.935Z,72.06
2022-08-30T08:05:36.885Z,69.19
2022-08-30T08:06:36.879Z,68.85
2022-08-30T08:07:36.874Z,68.14
2022-08-30T08:08:36.843Z,69.95
2022-08-30T08:09:36.847Z,65.59
2022-08-30T08:10:36.834Z,69.93
2022-08-30T08:11:36.815Z,69.69
2022-08-30T08:12:36.850Z,67.90
2022-08-30T08:13:45.245Z,71.70
2022-08-30T08:14:37.820Z,70.67
2022-08-30T08:15:36.867Z,69.72
2022-08-30T08:16:36.771Z,69.70
2022-08-30T08:17:36.814Z,66.15
2022-08-30T08:18:36.787Z,72.19
2022-08-30T08:19:36.744Z,71.40
2022-08-30T08:20:36.750Z,71.26
2022-08-30T08:21:36.733Z,70.00
2022-08-30T08:22:39.881Z,69.69
2022-08-30T08:23:37.743Z,71.04
2022-08-30T08:24:36.705Z,69.05
2022-08-30T08:25:36.726Z,70.07
2022-08-30T08:26:36.694Z,68.67
2022-08-30T08:27:36.696Z,70.71
2022-08-30T08:28:36.671Z,74.04
2022-08-30T08:29:36.628Z,69.31
2022-08-30T08:30:36.619Z,69.18
2022-08-30T08:31:36.605Z,68.29
2022-08-30T08:32:36.646Z,70.08
2022-08-30T08:33:36.612Z,69.93
2022-08-30T08:34:36.658Z,69.17
2022-08-30T08:35:36.560Z,71.02
2022-08-30T08:36:36.543Z,68.90
2022-08-30T08:37:36.558Z,68.70
2022-08-30T08:38:36.719Z,67.81
2022-08-30T08:39:36.527Z,69.89
2022-08-30T08:40:36.562Z,70.43
2022-08-30T08:41:36.510Z,71.16
2022-08-30T08:42:36.483Z,71.77
2022-08-30T08:43:36.593Z,69.75
2022-08-30T08:44:36.496Z,71.55
2022-08-30T08:45:36.505Z,68.81
2022-08-30T08:46:36.464Z,71.60
2022-08-30T08:47:36.437Z,68.85
2022-08-30T08:48:58.690Z,68.96
2022-08-30T08:49:37.412Z,69.75
2022-08-30T08:50:36.433Z,67.47
2022-08-30T08:51:36.443Z,73.58
2022-08-30T08:52:36.345Z,70.61
2022-08-30T08:53:47.961Z,70.43
2022-08-30T08:54:38.376Z,69.89
2022-08-30T08:55:36.429Z,68.16
2022-08-30T08:56:36.329Z,70.74
2022-08-30T08:57:36.308Z,68.47
2022-08-30T08:58:36.321Z,70.27
2022-08-30T08:59:36.301Z,70.98
2022-08-30T09:00:36.358Z,69.70
2022-08-30T09:01:36.379Z,70.33
2022-08-30T09:02:37.194Z,69.29
2022-08-30T09:03:36.274Z,68.67
2022-08-30T09:04:36.308Z,68.18
2022-08-30T09:05:36.250Z,70.61
2022-08-30T09:06:36.238Z,68.73
2022-08-30T09:07:36.217Z,69.06
2022-08-30T09:08:36.225Z,70.64
2022-08-30T09:09:36.206Z,69.21
2022-08-30T09:10:49.937Z,70.67
2022-08-30T09:11:38.174Z,69.29
2022-08-30T09:12:36.147Z,68.59
2022-08-30T09:13:36.165Z,69.20
2022-08-30T09:14:36.165Z,67.85
2022-08-30T09:15:36.181Z,68.94
2022-08-30T09:16:36.259Z,70.30
2022-08-30T09:17:36.142Z,69.96
2022-08-30T09:18:36.195Z,67.54
2022-08-30T09:19:36.131Z,67.88
2022-08-30T09:20:36.070Z,67.75
2022-08-30T09:21:36.102Z,67.83
2022-08-30T09:22:36.090Z,62.81
2022-08-30T09:23:36.182Z,67.61
2022-08-30T09:24:36.071Z,69.52
2022-08-30T09:25:41.232Z,71.29
2022-08-30T09:26:38.120Z,70.25
2022-08-30T09:27:36.009Z,68.22
2022-08-30T09:28:36.029Z,67.54
2022-08-30T09:29:36.023Z,71.78
2022-08-30T09:30:36.064Z,70.43
2022-08-30T09:31:36.027Z,68.04
2022-08-30T09:32:35.987Z,68.44
2022-08-30T09:33:35.943Z,69.86
2022-08-30T09:34:36.983Z,70.52
2022-08-30T09:35:36.033Z,69.87
2022-08-30T09:36:36.946Z,66.85
2022-08-30T09:37:35.956Z,67.88
2022-08-30T09:38:35.910Z,70.05
2022-08-30T09:39:35.927Z,70.62
2022-08-30T09:40:35.917Z,66.79
2022-08-30T09:41:36.991Z,69.41
2022-08-30T09:42:35.887Z,68.87
2022-08-30T09:43:35.900Z,68.31
2022-08-30T09:44:35.827Z,70.11
2022-08-30T09:45:35.907Z,68.35
2022-08-30T09:46:35.939Z,69.30
2022-08-30T09:47:35.875Z,69.10
2022-08-30T09:48:35.824Z,69.65
2022-08-30T09:49:35.840Z,69.12
2022-08-30T09:50:35.820Z,69.95
2022-08-30T09:51:35.996Z,69.85
2022-08-30T09:52:35.761Z,68.78
2022-08-30T09:53:35.744Z,69.24
2022-08-30T09:54:35.736Z,69.57
2022-08-30T09:55:35.747Z,66.27
2022-08-30T09:56:35.724Z,68.12
2022-08-30T09:57:35.729Z,70.31
2022-08-30T09:58:35.728Z,71.36
2022-08-30T09:59:35.677Z,68.71
2022-08-30T10:00:35.731Z,72.55
2022-08-30T10:01:35.759Z,69.92
2022-08-30T10:02:35.725Z,68.12
2022-08-30T10:03:40.221Z,68.72
2022-08-30T10:04:37.644Z,68.36
2022-08-30T10:05:35.755Z,69.54
2022-08-30T10:06:35.576Z,69.40
2022-08-30T10:07:35.601Z,68.96
2022-08-30T10:08:35.608Z,68.84
2022-08-30T10:09:36.196Z,68.75
2022-08-30T10:10:35.648Z,66.57
2022-08-30T10:11:35.537Z,68.04
2022-08-30T10:12:35.532Z,67.92
2022-08-30T10:13:35.540Z,69.37
2022-08-30T10:14:35.552Z,68.30
2022-08-30T10:15:35.526Z,71.19
2022-08-30T10:16:35.496Z,67.81
2022-08-30T10:17:35.476Z,69.66
2022-08-30T10:18:35.484Z,66.55
2022-08-30T10:19:35.457Z,69.01
2022-08-30T10:20:35.449Z,70.35
2022-08-30T10:21:35.457Z,69.08
2022-08-30T10:22:35.427Z,68.68
2022-08-30T10:23:35.400Z,68.39
2022-08-30T10:24:35.409Z,68.48
2022-08-30T10:25:35.393Z,69.13
2022-08-30T10:26:35.393Z,69.27
2022-08-30T10:27:35.349Z,67.38
2022-08-30T10:28:35.393Z,70.46
2022-08-30T10:29:38.328Z,68.21
2022-08-30T10:30:35.349Z,69.11
2022-08-30T10:31:36.521Z,68.46
2022-08-30T10:32:35.342Z,69.33
2022-08-30T10:33:35.295Z,69.53
2022-08-30T10:34:35.324Z,69.21
2022-08-30T10:35:38.487Z,68.46
2022-08-30T10:36:35.273Z,68.79
2022-08-30T10:37:35.273Z,69.81
2022-08-30T10:38:35.440Z,70.51
2022-08-30T10:39:35.256Z,69.09
2022-08-30T10:40:35.261Z,70.48
2022-08-30T10:41:35.274Z,68.78
2022-08-30T10:42:39.848Z,69.08
2022-08-30T10:43:36.206Z,69.42
2022-08-30T10:44:35.182Z,67.39
2022-08-30T10:45:35.174Z,69.94
2022-08-30T10:46:35.242Z,66.71
2022-08-30T10:47:35.187Z,70.84
2022-08-30T10:48:35.190Z,68.82
2022-08-30T10:49:35.123Z,69.09
2022-08-30T10:50:39.052Z,68.90
2022-08-30T10:51:37.107Z,66.99
2022-08-30T10:52:35.567Z,69.54
2022-08-30T10:53:35.143Z,71.00
2022-08-30T10:54:35.131Z,68.43
2022-08-30T10:55:35.090Z,68.83
2022-08-30T10:56:35.126Z,70.23
2022-08-30T10:57:35.053Z,69.51
2022-08-30T10:58:35.099Z,70.80
2022-08-30T10:59:35.046Z,68.56
2022-08-30T11:00:35.055Z,68.85
2022-08-30T11:01:35.128Z,69.57
2022-08-30T11:02:35.003Z,67.22
2022-08-30T11:03:34.997Z,70.04
2022-08-30T11:04:34.986Z,66.50
2022-08-30T11:05:34.970Z,71.20
2022-08-30T11:06:34.959Z,68.72
2022-08-30T11:07:34.934Z,64.69
2022-08-30T11:08:34.940Z,71.14
2022-08-30T11:09:35.899Z,70.97
2022-08-30T11:10:35.476Z,70.72
2022-08-30T11:11:35.022Z,68.62
2022-08-30T11:12:34.867Z,70.25
2022-08-30T11:13:34.910Z,68.04
2022-08-30T11:14:34.908Z,68.46
2022-08-30T11:15:34.898Z,69.09
2022-08-30T11:16:34.908Z,70.48
2022-08-30T11:17:34.812Z,66.94
2022-08-30T11:18:34.803Z,66.97
2022-08-30T11:19:34.819Z,70.20
2022-08-30T11:20:34.762Z,70.45
2022-08-30T11:21:34.807Z,68.23
2022-08-30T11:22:38.858Z,68.32
2022-08-30T11:23:34.780Z,69.77
2022-08-30T11:24:34.780Z,69.61
2022-08-30T11:25:38.625Z,70.05
2022-08-30T11:26:35.755Z,68.80
2022-08-30T11:27:34.748Z,69.14
2022-08-30T11:28:34.709Z,69.40
2022-08-30T11:29:34.728Z,66.73
2022-08-30T11:30:34.721Z,68.65
2022-08-30T11:31:34.692Z,70.17
2022-08-30T11:32:34.679Z,66.78
2022-08-30T11:33:34.641Z,70.88
2022-08-30T11:34:34.751Z,68.45
2022-08-30T11:35:34.632Z,69.26
2022-08-30T11:36:37.753Z,69.42
2022-08-30T11:37:34.607Z,68.52
2022-08-30T11:38:34.599Z,67.29
2022-08-30T11:39:34.621Z,67.71
2022-08-30T11:40:34.584Z,70.07
2022-08-30T11:41:38.287Z,70.96
2022-08-30T11:42:35.588Z,70.05
2022-08-30T11:43:34.524Z,70.43
2022-08-30T11:44:34.671Z,68.20
2022-08-30T11:45:34.558Z,70.87
2022-08-30T11:46:34.519Z,68.29
2022-08-30T11:47:34.551Z,69.41
2022-08-30T11:48:34.542Z,70.55
2022-08-30T11:49:34.532Z,69.32
2022-08-30T11:50:34.480Z,70.28
2022-08-30T11:51:34.484Z,70.68
2022-08-30T11:52:34.501Z,68.72
2022-08-30T11:53:34.453Z,69.87
2022-08-30T11:54:34.449Z,70.69
2022-08-30T11:55:34.465Z,67.28
2022-08-30T11:56:34.450Z,68.05
2022-08-30T11:57:34.413Z,68.92
2022-08-30T11:58:34.376Z,70.87
2022-08-30T11:59:34.459Z,70.81
2022-08-30T12:00:35.272Z,70.31
2022-08-30T12:01:50.009Z,70.00
2022-08-30T12:02:36.457Z,68.41
2022-08-30T12:03:35.247Z,68.49
2022-08-30T12:04:34.302Z,69.02
2022-08-30T12:05:34.333Z,70.48
2022-08-30T12:06:34.310Z,68.55
2022-08-30T12:07:35.836Z,69.41
2022-08-30T12:08:34.307Z,68.68
2022-08-30T12:09:34.265Z,68.80
2022-08-30T12:10:34.362Z,68.69
2022-08-30T12:11:34.261Z,68.18
2022-08-30T12:12:34.274Z,71.01
2022-08-30T12:13:34.198Z,70.06
2022-08-30T12:14:34.213Z,70.37
2022-08-30T12:15:34.202Z,67.98
2022-08-30T12:16:34.245Z,69.83
2022-08-30T12:17:34.374Z,71.04
2022-08-30T12:18:34.198Z,69.12
2022-08-30T12:19:34.153Z,68.92
2022-08-30T12:20:34.180Z,68.52
2022-08-30T12:21:43.838Z,70.58
2022-08-30T12:22:35.130Z,68.17
2022-08-30T12:23:34.154Z,70.77
2022-08-30T12:24:34.137Z,70.01
2022-08-30T12:25:34.104Z,69.44
2022-08-30T12:26:34.103Z,69.93
2022-08-30T12:27:34.099Z,68.96
2022-08-30T12:28:34.090Z,68.00
2022-08-30T12:29:34.102Z,69.21
2022-08-30T12:30:34.045Z,72.14
2022-08-30T12:31:34.169Z,70.97
2022-08-30T12:32:34.187Z,68.32
2022-08-30T12:33:41.201Z,68.81
2022-08-30T12:34:36.042Z,71.16
2022-08-30T12:35:33.971Z,68.85
2022-08-30T12:36:34.098Z,70.41
2022-08-30T12:37:34.006Z,69.34
2022-08-30T12:38:34.547Z,70.24
2022-08-30T12:39:33.935Z,70.64
2022-08-30T12:40:34.007Z,70.57
2022-08-30T12:41:33.959Z,70.44
2022-08-30T12:42:33.950Z,71.71
2022-08-30T12:43:40.654Z,70.86
2022-08-30T12:44:34.920Z,69.80
2022-08-30T12:45:33.950Z,69.08
2022-08-30T12:46:33.903Z,71.60
2022-08-30T12:47:33.890Z,68.84
2022-08-30T12:48:33.899Z,68.13
2022-08-30T12:49:33.892Z,69.93
2022-08-30T12:50:33.836Z,70.75
2022-08-30T12:51:33.823Z,70.48
2022-08-30T12:52:33.839Z,68.29
2022-08-30T12:53:33.812Z,70.17